sensor_id;sensor_type;location;lat;lon;timestamp;P1;P2;P0
69746;PMS7003;57018;50.278;19.134;2023-02-20T00:02:28;45.00;37.00;25.00
69746;PMS7003;57018;50.278;19.134;2023-02-20T00:04:58;43.75;34.75;22.25
69746;PMS7003;57018;50.278;19.134;2023-02-20T00:07:28;39.00;33.00;24.00
69746;PMS7003;57018;50.278;19.134;2023-02-20T00:09:57;47.50;37.50;24.00
69746;PMS7003;57018;50.278;19.134;2023-02-20T00:12:27;40.50;38.00;24.00
69746;PMS7003;57018;50.278;19.134;2023-02-20T00:14:58;35.50;33.00;24.00
69746;PMS7003;57018;50.278;19.134;2023-02-20T00:17:28;33.50;33.00;24.00
69746;PMS7003;57018;50.278;19.134;2023-02-20T00:19:58;35.00;33.50;22.50
69746;PMS7003;57018;50.278;19.134;2023-02-20T00:22:28;36.50;31.50;24.50
69746;PMS7003;57018;50.278;19.134;2023-02-20T00:24:58;41.00;34.00;23.00
69746;PMS7003;57018;50.278;19.134;2023-02-20T00:27:28;36.50;32.00;20.50
69746;PMS7003;57018;50.278;19.134;2023-02-20T00:29:58;35.33;32.00;23.00
69746;PMS7003;57018;50.278;19.134;2023-02-20T00:32:27;44.50;37.50;26.00
69746;PMS7003;57018;50.278;19.134;2023-02-20T00:34:57;43.00;35.50;25.25
69746;PMS7003;57018;50.278;19.134;2023-02-20T00:37:27;34.00;33.00;25.00
69746;PMS7003;57018;50.278;19.134;2023-02-20T00:39:57;31.00;31.00;23.00
69746;PMS7003;57018;50.278;19.134;2023-02-20T00:42:27;35.00;30.00;19.00
69746;PMS7003;57018;50.278;19.134;2023-02-20T00:44:59;31.67;28.00;19.67
69746;PMS7003;57018;50.278;19.134;2023-02-20T00:47:29;33.00;30.00;22.33
69746;PMS7003;57018;50.278;19.134;2023-02-20T00:49:59;28.50;28.50;20.00
69746;PMS7003;57018;50.278;19.134;2023-02-20T00:52:29;31.00;27.00;17.00
69746;PMS7003;57018;50.278;19.134;2023-02-20T00:54:59;33.33;29.67;22.00
69746;PMS7003;57018;50.278;19.134;2023-02-20T00:57:28;30.00;27.00;15.00
69746;PMS7003;57018;50.278;19.134;2023-02-20T00:59:58;31.33;25.00;19.33
69746;PMS7003;57018;50.278;19.134;2023-02-20T01:02:28;34.00;30.00;20.00
69746;PMS7003;57018;50.278;19.134;2023-02-20T01:04:58;37.00;27.00;18.00
69746;PMS7003;57018;50.278;19.134;2023-02-20T01:07:28;31.33;25.00;18.00
69746;PMS7003;57018;50.278;19.134;2023-02-20T01:09:57;25.50;23.50;15.00
69746;PMS7003;57018;50.278;19.134;2023-02-20T01:12:27;29.50;26.50;17.50
69746;PMS7003;57018;50.278;19.134;2023-02-20T01:14:57;24.00;21.00;16.00
69746;PMS7003;57018;50.278;19.134;2023-02-20T01:17:27;26.00;23.50;16.50
69746;PMS7003;57018;50.278;19.134;2023-02-20T01:19:57;24.00;21.50;15.00
69746;PMS7003;57018;50.278;19.134;2023-02-20T01:22:27;25.50;22.50;15.00
69746;PMS7003;57018;50.278;19.134;2023-02-20T01:24:57;19.33;19.33;13.00
69746;PMS7003;57018;50.278;19.134;2023-02-20T01:27:27;17.33;15.67;10.33
69746;PMS7003;57018;50.278;19.134;2023-02-20T01:29:56;20.00;18.00;11.00
69746;PMS7003;57018;50.278;19.134;2023-02-20T01:32:26;13.00;9.00;6.00
69746;PMS7003;57018;50.278;19.134;2023-02-20T01:34:56;21.67;19.00;12.67
69746;PMS7003;57018;50.278;19.134;2023-02-20T01:37:26;22.00;19.00;13.00
69746;PMS7003;57018;50.278;19.134;2023-02-20T01:39:56;20.00;19.00;12.00
69746;PMS7003;57018;50.278;19.134;2023-02-20T01:42:27;21.33;19.67;13.67
69746;PMS7003;57018;50.278;19.134;2023-02-20T01:47:45;18.33;17.00;12.67
69746;PMS7003;57018;50.278;19.134;2023-02-20T01:50:15;15.00;14.00;9.00
69746;PMS7003;57018;50.278;19.134;2023-02-20T01:52:49;17.00;17.00;12.00
69746;PMS7003;57018;50.278;19.134;2023-02-20T01:55:22;16.00;15.00;9.00
69746;PMS7003;57018;50.278;19.134;2023-02-20T01:57:57;21.50;20.00;12.50
69746;PMS7003;57018;50.278;19.134;2023-02-20T02:00:30;16.67;13.33;10.00
69746;PMS7003;57018;50.278;19.134;2023-02-20T02:03:02;19.00;19.00;12.33
69746;PMS7003;57018;50.278;19.134;2023-02-20T02:05:34;20.00;19.00;13.00
69746;PMS7003;57018;50.278;19.134;2023-02-20T02:08:07;14.50;14.50;9.00
69746;PMS7003;57018;50.278;19.134;2023-02-20T02:10:48;17.00;16.00;12.00
69746;PMS7003;57018;50.278;19.134;2023-02-20T02:13:24;16.00;13.50;10.50
69746;PMS7003;57018;50.278;19.134;2023-02-20T02:15:58;20.00;16.00;10.00
69746;PMS7003;57018;50.278;19.134;2023-02-20T02:18:40;20.50;18.00;12.50
69746;PMS7003;57018;50.278;19.134;2023-02-20T02:24:35;15.25;15.00;9.75
69746;PMS7003;57018;50.278;19.134;2023-02-20T02:33:54;20.00;17.00;11.00
69746;PMS7003;57018;50.278;19.134;2023-02-20T02:36:46;13.00;13.00;8.00
69746;PMS7003;57018;50.278;19.134;2023-02-20T02:39:22;19.00;17.00;12.00
69746;PMS7003;57018;50.278;19.134;2023-02-20T02:42:02;19.00;17.00;12.00
69746;PMS7003;57018;50.278;19.134;2023-02-20T02:44:41;21.50;19.50;12.50
69746;PMS7003;57018;50.278;19.134;2023-02-20T02:47:15;17.67;12.00;8.33
69746;PMS7003;57018;50.278;19.134;2023-02-20T02:49:50;22.00;19.00;12.00
69746;PMS7003;57018;50.278;19.134;2023-02-20T02:52:23;21.25;18.00;12.50
69746;PMS7003;57018;50.278;19.134;2023-02-20T02:55:12;14.50;14.00;12.50
69746;PMS7003;57018;50.278;19.134;2023-02-20T02:57:44;25.50;20.50;12.50
69746;PMS7003;57018;50.278;19.134;2023-02-20T03:00:14;14.33;14.33;11.00
69746;PMS7003;57018;50.278;19.134;2023-02-20T03:02:49;23.00;19.00;12.00
69746;PMS7003;57018;50.278;19.134;2023-02-20T03:05:24;26.00;20.00;15.00
69746;PMS7003;57018;50.278;19.134;2023-02-20T03:08:08;28.50;21.50;15.50
69746;PMS7003;57018;50.278;19.134;2023-02-20T03:10:48;15.50;15.50;11.00
69746;PMS7003;57018;50.278;19.134;2023-02-20T03:13:20;21.00;19.00;12.00
69746;PMS7003;57018;50.278;19.134;2023-02-20T03:16:08;21.00;17.00;13.00
69746;PMS7003;57018;50.278;19.134;2023-02-20T03:18:42;21.00;18.50;12.50
69746;PMS7003;57018;50.278;19.134;2023-02-20T03:21:16;18.67;16.33;9.33
69746;PMS7003;57018;50.278;19.134;2023-02-20T03:23:50;23.00;23.00;16.00
69746;PMS7003;57018;50.278;19.134;2023-02-20T03:26:25;19.00;19.00;13.00
69746;PMS7003;57018;50.278;19.134;2023-02-20T03:29:00;20.00;20.00;16.00
69746;PMS7003;57018;50.278;19.134;2023-02-20T03:31:34;22.00;19.00;12.50
69746;PMS7003;57018;50.278;19.134;2023-02-20T03:34:09;23.00;21.00;13.00
69746;PMS7003;57018;50.278;19.134;2023-02-20T03:37:03;23.33;21.33;15.00
69746;PMS7003;57018;50.278;19.134;2023-02-20T03:39:54;19.50;18.50;15.00
69746;PMS7003;57018;50.278;19.134;2023-02-20T03:45:33;19.00;17.00;12.00
69746;PMS7003;57018;50.278;19.134;2023-02-20T03:48:07;17.50;15.50;8.50
69746;PMS7003;57018;50.278;19.134;2023-02-20T03:50:41;17.00;15.00;11.00
69746;PMS7003;57018;50.278;19.134;2023-02-20T03:53:11;27.00;17.00;9.00
69746;PMS7003;57018;50.278;19.134;2023-02-20T03:55:42;14.50;12.00;8.00
69746;PMS7003;57018;50.278;19.134;2023-02-20T03:58:13;15.00;15.00;11.00
69746;PMS7003;57018;50.278;19.134;2023-02-20T04:00:49;15.00;15.00;11.00
69746;PMS7003;57018;50.278;19.134;2023-02-20T04:03:22;19.00;15.00;10.00
69746;PMS7003;57018;50.278;19.134;2023-02-20T04:05:56;15.50;13.50;10.00
69746;PMS7003;57018;50.278;19.134;2023-02-20T04:08:30;16.67;15.00;11.00
69746;PMS7003;57018;50.278;19.134;2023-02-20T04:11:05;16.50;14.50;10.00
69746;PMS7003;57018;50.278;19.134;2023-02-20T04:13:37;15.00;15.00;11.00
69746;PMS7003;57018;50.278;19.134;2023-02-20T04:16:08;20.67;17.67;11.00
69746;PMS7003;57018;50.278;19.134;2023-02-20T04:18:40;13.00;13.00;8.00
69746;PMS7003;57018;50.278;19.134;2023-02-20T04:21:19;13.00;11.00;9.00
69746;PMS7003;57018;50.278;19.134;2023-02-20T04:24:00;22.00;16.00;11.00
69746;PMS7003;57018;50.278;19.134;2023-02-20T04:26:33;19.00;18.00;12.00
69746;PMS7003;57018;50.278;19.134;2023-02-20T04:29:04;18.00;16.00;12.00
69746;PMS7003;57018;50.278;19.134;2023-02-20T04:31:34;18.00;16.00;11.00
69746;PMS7003;57018;50.278;19.134;2023-02-20T04:34:04;15.00;15.00;11.00
69746;PMS7003;57018;50.278;19.134;2023-02-20T04:36:34;17.67;16.67;12.33
69746;PMS7003;57018;50.278;19.134;2023-02-20T04:39:04;18.50;16.00;8.00
69746;PMS7003;57018;50.278;19.134;2023-02-20T04:41:34;25.00;21.00;14.00
69746;PMS7003;57018;50.278;19.134;2023-02-20T04:44:04;19.00;19.00;14.00
69746;PMS7003;57018;50.278;19.134;2023-02-20T04:46:52;35.00;27.00;18.00
69746;PMS7003;57018;50.278;19.134;2023-02-20T04:49:22;24.50;23.50;17.00
69746;PMS7003;57018;50.278;19.134;2023-02-20T04:51:52;31.67;23.33;16.00
69746;PMS7003;57018;50.278;19.134;2023-02-20T04:54:22;28.75;26.25;18.75
69746;PMS7003;57018;50.278;19.134;2023-02-20T04:56:53;35.00;29.00;18.00
69746;PMS7003;57018;50.278;19.134;2023-02-20T04:59:23;31.50;28.50;20.00
69746;PMS7003;57018;50.278;19.134;2023-02-20T05:01:53;27.00;24.67;17.00
69746;PMS7003;57018;50.278;19.134;2023-02-20T05:04:22;30.00;24.00;17.00
69746;PMS7003;57018;50.278;19.134;2023-02-20T05:06:53;34.00;29.50;21.00
69746;PMS7003;57018;50.278;19.134;2023-02-20T05:09:23;33.50;21.50;15.00
69746;PMS7003;57018;50.278;19.134;2023-02-20T05:11:53;31.00;28.00;19.33
69746;PMS7003;57018;50.278;19.134;2023-02-20T05:14:23;31.50;31.00;21.00
69746;PMS7003;57018;50.278;19.134;2023-02-20T05:16:53;28.00;24.00;15.00
69746;PMS7003;57018;50.278;19.134;2023-02-20T05:19:23;19.67;17.00;11.67
69746;PMS7003;57018;50.278;19.134;2023-02-20T05:21:52;22.00;21.00;15.00
69746;PMS7003;57018;50.278;19.134;2023-02-20T05:24:42;19.00;19.00;14.00
69746;PMS7003;57018;50.278;19.134;2023-02-20T05:27:13;19.00;19.00;14.50
69746;PMS7003;57018;50.278;19.134;2023-02-20T05:29:45;23.33;20.00;14.67
69746;PMS7003;57018;50.278;19.134;2023-02-20T05:32:16;23.00;20.50;15.50
69746;PMS7003;57018;50.278;19.134;2023-02-20T05:34:48;24.00;21.50;13.00
69746;PMS7003;57018;50.278;19.134;2023-02-20T05:37:18;26.67;25.33;17.67
69746;PMS7003;57018;50.278;19.134;2023-02-20T05:39:49;29.75;26.50;17.75
69746;PMS7003;57018;50.278;19.134;2023-02-20T05:42:19;15.00;12.00;11.00
69746;PMS7003;57018;50.278;19.134;2023-02-20T05:44:49;25.00;21.00;16.00
69746;PMS7003;57018;50.278;19.134;2023-02-20T05:47:19;31.00;25.00;18.00
69746;PMS7003;57018;50.278;19.134;2023-02-20T05:49:49;29.00;26.00;16.00
69746;PMS7003;57018;50.278;19.134;2023-02-20T05:52:19;37.50;33.50;22.50
69746;PMS7003;57018;50.278;19.134;2023-02-20T05:54:48;19.00;17.00;9.00
69746;PMS7003;57018;50.278;19.134;2023-02-20T05:57:18;26.00;26.00;19.67
69746;PMS7003;57018;50.278;19.134;2023-02-20T05:59:50;27.50;23.00;16.50
69746;PMS7003;57018;50.278;19.134;2023-02-20T06:02:20;31.67;28.00;18.33
69746;PMS7003;57018;50.278;19.134;2023-02-20T06:04:50;13.00;12.00;4.00
69746;PMS7003;57018;50.278;19.134;2023-02-20T06:07:20;20.50;19.00;15.50
69746;PMS7003;57018;50.278;19.134;2023-02-20T06:09:50;30.00;28.00;17.00
69746;PMS7003;57018;50.278;19.134;2023-02-20T06:12:20;23.00;22.00;15.50
69746;PMS7003;57018;50.278;19.134;2023-02-20T06:14:50;24.75;23.00;18.00
69746;PMS7003;57018;50.278;19.134;2023-02-20T06:17:20;33.00;29.00;19.00
69746;PMS7003;57018;50.278;19.134;2023-02-20T06:19:49;26.33;23.33;17.33
69746;PMS7003;57018;50.278;19.134;2023-02-20T06:22:19;32.00;22.00;16.00
69746;PMS7003;57018;50.278;19.134;2023-02-20T06:24:49;24.33;19.00;12.00
69746;PMS7003;57018;50.278;19.134;2023-02-20T06:27:19;20.50;17.75;12.75
69746;PMS7003;57018;50.278;19.134;2023-02-20T06:29:49;24.00;19.50;14.00
69746;PMS7003;57018;50.278;19.134;2023-02-20T06:32:19;22.67;21.33;16.67
69746;PMS7003;57018;50.278;19.134;2023-02-20T06:34:49;20.00;17.00;12.00
69746;PMS7003;57018;50.278;19.134;2023-02-20T06:37:19;25.00;21.00;14.00
69746;PMS7003;57018;50.278;19.134;2023-02-20T06:39:49;19.00;15.00;9.00
69746;PMS7003;57018;50.278;19.134;2023-02-20T06:42:19;21.00;21.00;16.00
69746;PMS7003;57018;50.278;19.134;2023-02-20T06:44:49;22.00;22.00;15.00
69746;PMS7003;57018;50.278;19.134;2023-02-20T06:47:18;29.00;25.00;16.00
69746;PMS7003;57018;50.278;19.134;2023-02-20T06:49:48;20.00;20.00;14.00
69746;PMS7003;57018;50.278;19.134;2023-02-20T06:52:18;28.00;27.00;17.00
69746;PMS7003;57018;50.278;19.134;2023-02-20T06:54:48;24.00;20.67;16.00
69746;PMS7003;57018;50.278;19.134;2023-02-20T06:57:20;23.50;23.50;15.50
69746;PMS7003;57018;50.278;19.134;2023-02-20T06:59:50;23.50;17.00;13.00
69746;PMS7003;57018;50.278;19.134;2023-02-20T07:02:20;34.75;27.75;18.00
69746;PMS7003;57018;50.278;19.134;2023-02-20T07:04:50;29.50;25.50;17.00
69746;PMS7003;57018;50.278;19.134;2023-02-20T07:07:20;30.50;27.00;18.00
69746;PMS7003;57018;50.278;19.134;2023-02-20T07:09:50;28.00;26.67;17.00
69746;PMS7003;57018;50.278;19.134;2023-02-20T07:12:22;40.00;28.00;21.00
69746;PMS7003;57018;50.278;19.134;2023-02-20T07:14:52;32.00;32.00;19.00
69746;PMS7003;57018;50.278;19.134;2023-02-20T07:17:22;29.50;29.00;21.00
69746;PMS7003;57018;50.278;19.134;2023-02-20T07:19:52;28.50;26.00;18.50
69746;PMS7003;57018;50.278;19.134;2023-02-20T07:22:22;37.00;35.00;22.00
69746;PMS7003;57018;50.278;19.134;2023-02-20T07:24:52;35.00;32.50;24.00
69746;PMS7003;57018;50.278;19.134;2023-02-20T07:27:23;30.00;25.50;14.50
69746;PMS7003;57018;50.278;19.134;2023-02-20T07:29:53;38.50;36.00;23.50
69746;PMS7003;57018;50.278;19.134;2023-02-20T07:32:23;43.00;34.00;23.00
69746;PMS7003;57018;50.278;19.134;2023-02-20T07:34:52;27.00;27.00;18.00
69746;PMS7003;57018;50.278;19.134;2023-02-20T07:37:22;33.00;30.00;18.00
69746;PMS7003;57018;50.278;19.134;2023-02-20T07:39:52;26.00;24.00;18.00
69746;PMS7003;57018;50.278;19.134;2023-02-20T07:42:22;25.00;25.00;14.00
69746;PMS7003;57018;50.278;19.134;2023-02-20T07:44:52;26.00;24.00;15.00
69746;PMS7003;57018;50.278;19.134;2023-02-20T07:47:22;28.00;27.00;18.00
69746;PMS7003;57018;50.278;19.134;2023-02-20T07:49:52;31.25;30.75;18.50
69746;PMS7003;57018;50.278;19.134;2023-02-20T07:52:21;31.33;26.33;17.00
69746;PMS7003;57018;50.278;19.134;2023-02-20T07:54:52;35.00;27.00;20.00
69746;PMS7003;57018;50.278;19.134;2023-02-20T07:57:22;29.00;21.00;18.00
69746;PMS7003;57018;50.278;19.134;2023-02-20T07:59:52;19.00;18.67;14.67
69746;PMS7003;57018;50.278;19.134;2023-02-20T08:02:22;24.00;20.00;14.00
69746;PMS7003;57018;50.278;19.134;2023-02-20T08:04:52;25.00;23.50;16.00
69746;PMS7003;57018;50.278;19.134;2023-02-20T08:07:22;28.33;24.33;15.00
69746;PMS7003;57018;50.278;19.134;2023-02-20T08:09:51;31.00;26.00;19.50
69746;PMS7003;57018;50.278;19.134;2023-02-20T08:12:21;27.33;22.33;9.00
69746;PMS7003;57018;50.278;19.134;2023-02-20T08:14:51;33.50;31.50;20.50
69746;PMS7003;57018;50.278;19.134;2023-02-20T08:17:22;36.00;36.00;21.00
69746;PMS7003;57018;50.278;19.134;2023-02-20T08:19:52;33.00;31.00;20.00
69746;PMS7003;57018;50.278;19.134;2023-02-20T08:22:22;23.00;23.00;17.00
69746;PMS7003;57018;50.278;19.134;2023-02-20T08:24:52;24.00;21.00;16.00
69746;PMS7003;57018;50.278;19.134;2023-02-20T08:27:22;28.00;26.25;17.75
69746;PMS7003;57018;50.278;19.134;2023-02-20T08:29:52;29.33;28.00;16.00
69746;PMS7003;57018;50.278;19.134;2023-02-20T08:32:21;26.50;25.50;16.50
69746;PMS7003;57018;50.278;19.134;2023-02-20T08:34:51;29.00;24.00;15.00
69746;PMS7003;57018;50.278;19.134;2023-02-20T08:37:21;29.00;27.00;17.00
69746;PMS7003;57018;50.278;19.134;2023-02-20T08:39:51;29.50;23.00;15.00
69746;PMS7003;57018;50.278;19.134;2023-02-20T08:42:21;20.50;19.00;14.00
69746;PMS7003;57018;50.278;19.134;2023-02-20T08:44:51;29.50;25.50;18.00
69746;PMS7003;57018;50.278;19.134;2023-02-20T08:47:21;36.50;26.50;17.00
69746;PMS7003;57018;50.278;19.134;2023-02-20T08:49:51;24.00;24.00;16.00
69746;PMS7003;57018;50.278;19.134;2023-02-20T08:52:23;29.00;25.00;15.50
69746;PMS7003;57018;50.278;19.134;2023-02-20T08:54:53;29.50;25.50;17.50
69746;PMS7003;57018;50.278;19.134;2023-02-20T08:57:23;18.00;18.00;11.00
69746;PMS7003;57018;50.278;19.134;2023-02-20T08:59:53;27.00;20.50;14.00
69746;PMS7003;57018;50.278;19.134;2023-02-20T09:02:24;26.00;21.00;15.50
69746;PMS7003;57018;50.278;19.134;2023-02-20T09:04:56;29.50;23.50;16.50
69746;PMS7003;57018;50.278;19.134;2023-02-20T09:07:26;24.00;24.00;13.50
69746;PMS7003;57018;50.278;19.134;2023-02-20T09:09:55;27.00;22.33;14.33
69746;PMS7003;57018;50.278;19.134;2023-02-20T09:12:25;27.00;25.00;17.00
69746;PMS7003;57018;50.278;19.134;2023-02-20T09:14:56;25.33;23.67;17.33
69746;PMS7003;57018;50.278;19.134;2023-02-20T09:17:28;24.00;20.33;13.67
69746;PMS7003;57018;50.278;19.134;2023-02-20T09:19:58;21.00;20.33;14.33
69746;PMS7003;57018;50.278;19.134;2023-02-20T09:22:28;31.00;26.67;15.67
69746;PMS7003;57018;50.278;19.134;2023-02-20T09:24:58;25.00;20.00;12.50
69746;PMS7003;57018;50.278;19.134;2023-02-20T09:27:28;25.00;24.00;17.00
69746;PMS7003;57018;50.278;19.134;2023-02-20T09:29:58;23.50;22.00;13.00
69746;PMS7003;57018;50.278;19.134;2023-02-20T09:32:31;26.50;23.00;15.00
69746;PMS7003;57018;50.278;19.134;2023-02-20T09:35:01;29.00;27.00;17.00
69746;PMS7003;57018;50.278;19.134;2023-02-20T09:37:31;33.00;26.00;16.75
69746;PMS7003;57018;50.278;19.134;2023-02-20T09:40:00;26.50;24.50;17.50
69746;PMS7003;57018;50.278;19.134;2023-02-20T09:42:32;30.50;26.00;16.00
69746;PMS7003;57018;50.278;19.134;2023-02-20T09:45:10;19.00;18.00;13.00
69746;PMS7003;57018;50.278;19.134;2023-02-20T09:47:47;27.00;23.50;15.00
69746;PMS7003;57018;50.278;19.134;2023-02-20T09:50:32;28.00;24.50;18.00
69746;PMS7003;57018;50.278;19.134;2023-02-20T09:53:07;27.00;25.50;15.50
69746;PMS7003;57018;50.278;19.134;2023-02-20T09:55:47;25.00;22.00;16.00
69746;PMS7003;57018;50.278;19.134;2023-02-20T09:58:22;29.00;24.67;17.00
69746;PMS7003;57018;50.278;19.134;2023-02-20T10:00:57;29.50;25.00;17.00
69746;PMS7003;57018;50.278;19.134;2023-02-20T10:03:31;31.50;30.50;19.00
69746;PMS7003;57018;50.278;19.134;2023-02-20T10:06:09;31.00;25.00;18.50
69746;PMS7003;57018;50.278;19.134;2023-02-20T10:11:14;23.50;21.50;15.50
69746;PMS7003;57018;50.278;19.134;2023-02-20T10:13:53;28.67;27.33;19.33
69746;PMS7003;57018;50.278;19.134;2023-02-20T10:16:38;28.00;22.00;14.00
69746;PMS7003;57018;50.278;19.134;2023-02-20T10:19:17;27.00;20.50;14.50
69746;PMS7003;57018;50.278;19.134;2023-02-20T10:21:59;16.50;14.00;11.00
69746;PMS7003;57018;50.278;19.134;2023-02-20T10:24:43;23.00;21.75;14.75
69746;PMS7003;57018;50.278;19.134;2023-02-20T10:27:29;27.00;25.50;15.00
69746;PMS7003;57018;50.278;19.134;2023-02-20T10:30:04;24.00;16.00;14.00
69746;PMS7003;57018;50.278;19.134;2023-02-20T10:32:39;28.00;27.00;18.00
69746;PMS7003;57018;50.278;19.134;2023-02-20T10:35:15;20.00;18.00;13.00
69746;PMS7003;57018;50.278;19.134;2023-02-20T10:37:57;21.00;21.00;16.00
69746;PMS7003;57018;50.278;19.134;2023-02-20T10:40:33;24.00;21.00;14.00
69746;PMS7003;57018;50.278;19.134;2023-02-20T10:43:10;27.50;27.00;18.50
69746;PMS7003;57018;50.278;19.134;2023-02-20T10:45:49;26.00;25.00;17.33
69746;PMS7003;57018;50.278;19.134;2023-02-20T10:48:23;31.00;26.00;14.00
69746;PMS7003;57018;50.278;19.134;2023-02-20T10:51:05;22.00;21.00;14.00
69746;PMS7003;57018;50.278;19.134;2023-02-20T10:53:42;12.50;12.00;10.50
69746;PMS7003;57018;50.278;19.134;2023-02-20T10:56:17;25.00;21.50;13.50
69746;PMS7003;57018;50.278;19.134;2023-02-20T10:58:54;13.50;12.50;9.00
69746;PMS7003;57018;50.278;19.134;2023-02-20T11:01:43;19.00;17.00;12.00
69746;PMS7003;57018;50.278;19.134;2023-02-20T11:04:17;23.00;21.00;14.00
69746;PMS7003;57018;50.278;19.134;2023-02-20T11:06:51;24.50;17.75;11.25
69746;PMS7003;57018;50.278;19.134;2023-02-20T11:09:25;16.00;15.00;11.00
69746;PMS7003;57018;50.278;19.134;2023-02-20T11:11:55;17.50;16.00;12.50
69746;PMS7003;57018;50.278;19.134;2023-02-20T11:14:27;24.50;19.50;14.00
69746;PMS7003;57018;50.278;19.134;2023-02-20T11:17:02;25.50;21.00;14.00
69746;PMS7003;57018;50.278;19.134;2023-02-20T11:19:37;15.00;14.00;7.00
69746;PMS7003;57018;50.278;19.134;2023-02-20T11:22:10;21.00;19.00;12.00
69746;PMS7003;57018;50.278;19.134;2023-02-20T11:24:41;25.00;22.00;13.50
69746;PMS7003;57018;50.278;19.134;2023-02-20T11:27:15;21.50;18.50;12.50
69746;PMS7003;57018;50.278;19.134;2023-02-20T11:29:48;22.00;19.00;13.50
69746;PMS7003;57018;50.278;19.134;2023-02-20T11:32:26;18.00;18.00;8.00
69746;PMS7003;57018;50.278;19.134;2023-02-20T11:35:11;20.00;19.33;14.33
69746;PMS7003;57018;50.278;19.134;2023-02-20T11:37:49;30.50;28.00;18.00
69746;PMS7003;57018;50.278;19.134;2023-02-20T11:40:39;27.50;21.00;13.50
69746;PMS7003;57018;50.278;19.134;2023-02-20T11:43:13;21.00;18.50;13.50
69746;PMS7003;57018;50.278;19.134;2023-02-20T11:45:47;16.00;16.00;12.00
69746;PMS7003;57018;50.278;19.134;2023-02-20T11:48:20;22.00;19.00;13.00
69746;PMS7003;57018;50.278;19.134;2023-02-20T11:50:50;20.00;20.00;13.50
69746;PMS7003;57018;50.278;19.134;2023-02-20T11:53:22;22.50;22.00;12.50
69746;PMS7003;57018;50.278;19.134;2023-02-20T11:58:39;23.00;19.00;12.50
69746;PMS7003;57018;50.278;19.134;2023-02-20T12:01:26;23.00;22.00;14.00
69746;PMS7003;57018;50.278;19.134;2023-02-20T12:03:58;23.00;23.00;15.00
69746;PMS7003;57018;50.278;19.134;2023-02-20T12:06:37;23.75;22.25;15.50
69746;PMS7003;57018;50.278;19.134;2023-02-20T12:09:10;25.50;21.00;12.50
69746;PMS7003;57018;50.278;19.134;2023-02-20T12:11:42;25.50;21.00;14.00
69746;PMS7003;57018;50.278;19.134;2023-02-20T12:14:13;30.00;23.00;16.00
69746;PMS7003;57018;50.278;19.134;2023-02-20T12:16:54;23.33;23.00;14.00
69746;PMS7003;57018;50.278;19.134;2023-02-20T12:19:34;25.00;25.00;15.50
69746;PMS7003;57018;50.278;19.134;2023-02-20T12:22:16;26.00;25.50;16.00
69746;PMS7003;57018;50.278;19.134;2023-02-20T12:24:55;32.50;29.00;16.00
69746;PMS7003;57018;50.278;19.134;2023-02-20T12:27:39;27.00;26.50;16.00
69746;PMS7003;57018;50.278;19.134;2023-02-20T12:30:25;26.50;26.00;16.00
69746;PMS7003;57018;50.278;19.134;2023-02-20T12:33:07;31.00;29.50;17.50
69746;PMS7003;57018;50.278;19.134;2023-02-20T12:35:54;31.50;28.00;17.50
69746;PMS7003;57018;50.278;19.134;2023-02-20T12:38:34;28.00;24.00;17.00
69746;PMS7003;57018;50.278;19.134;2023-02-20T12:44:15;32.50;28.00;18.00
69746;PMS7003;57018;50.278;19.134;2023-02-20T12:46:57;27.50;25.50;17.00
69746;PMS7003;57018;50.278;19.134;2023-02-20T12:52:28;27.00;24.00;15.00
69746;PMS7003;57018;50.278;19.134;2023-02-20T12:55:15;30.00;25.00;17.00
69746;PMS7003;57018;50.278;19.134;2023-02-20T12:57:52;31.00;26.00;17.00
69746;PMS7003;57018;50.278;19.134;2023-02-20T13:00:33;28.67;26.33;15.33
69746;PMS7003;57018;50.278;19.134;2023-02-20T13:03:07;29.50;27.50;18.00
69746;PMS7003;57018;50.278;19.134;2023-02-20T13:05:42;28.00;26.00;15.50
69746;PMS7003;57018;50.278;19.134;2023-02-20T13:08:17;25.67;25.00;15.33
69746;PMS7003;57018;50.278;19.134;2023-02-20T13:10:54;29.00;25.00;14.00
69746;PMS7003;57018;50.278;19.134;2023-02-20T13:13:27;26.00;23.00;15.00
69746;PMS7003;57018;50.278;19.134;2023-02-20T13:16:16;21.00;20.00;16.00
69746;PMS7003;57018;50.278;19.134;2023-02-20T13:18:53;32.50;28.00;18.00
69746;PMS7003;57018;50.278;19.134;2023-02-20T13:21:29;20.00;18.00;14.00
69746;PMS7003;57018;50.278;19.134;2023-02-20T13:26:59;20.33;20.00;13.33
69746;PMS7003;57018;50.278;19.134;2023-02-20T13:29:35;25.00;23.00;17.00
69746;PMS7003;57018;50.278;19.134;2023-02-20T13:34:52;27.50;22.50;16.00
69746;PMS7003;57018;50.278;19.134;2023-02-20T13:43:30;33.00;26.50;17.00
69746;PMS7003;57018;50.278;19.134;2023-02-20T13:46:09;23.00;22.00;15.00
69746;PMS7003;57018;50.278;19.134;2023-02-20T13:48:47;29.00;25.00;17.00
69746;PMS7003;57018;50.278;19.134;2023-02-20T13:51:34;25.00;23.50;15.50
69746;PMS7003;57018;50.278;19.134;2023-02-20T13:54:14;25.00;24.33;15.67
69746;PMS7003;57018;50.278;19.134;2023-02-20T13:56:51;25.00;24.00;15.00
69746;PMS7003;57018;50.278;19.134;2023-02-20T13:59:25;24.00;24.00;16.00
69746;PMS7003;57018;50.278;19.134;2023-02-20T14:02:11;27.00;26.00;17.50
69746;PMS7003;57018;50.278;19.134;2023-02-20T14:04:59;24.00;22.50;15.00
69746;PMS7003;57018;50.278;19.134;2023-02-20T14:07:32;25.00;24.00;14.00
69746;PMS7003;57018;50.278;19.134;2023-02-20T14:10:12;30.50;24.00;15.50
69746;PMS7003;57018;50.278;19.134;2023-02-20T14:12:54;24.00;20.00;12.00
69746;PMS7003;57018;50.278;19.134;2023-02-20T14:15:29;20.00;20.00;14.67
69746;PMS7003;57018;50.278;19.134;2023-02-20T14:18:12;24.00;23.00;17.00
69746;PMS7003;57018;50.278;19.134;2023-02-20T14:20:46;28.50;26.00;18.50
69746;PMS7003;57018;50.278;19.134;2023-02-20T14:23:26;22.00;22.00;13.00
69746;PMS7003;57018;50.278;19.134;2023-02-20T14:26:04;32.00;28.00;19.00
69746;PMS7003;57018;50.278;19.134;2023-02-20T14:28:49;27.25;23.25;14.50
69746;PMS7003;57018;50.278;19.134;2023-02-20T14:31:22;30.00;28.00;18.50
69746;PMS7003;57018;50.278;19.134;2023-02-20T14:33:55;33.50;31.00;20.00
69746;PMS7003;57018;50.278;19.134;2023-02-20T14:36:31;30.50;28.00;17.00
69746;PMS7003;57018;50.278;19.134;2023-02-20T14:42:14;25.33;22.33;16.33
69746;PMS7003;57018;50.278;19.134;2023-02-20T14:44:48;33.00;28.00;21.00
69746;PMS7003;57018;50.278;19.134;2023-02-20T14:47:23;32.00;28.00;18.50
69746;PMS7003;57018;50.278;19.134;2023-02-20T14:49:58;32.00;30.00;20.00
69746;PMS7003;57018;50.278;19.134;2023-02-20T14:52:42;32.00;24.50;16.50